Date,TemperatureHighF,TemperatureAvgF,TemperatureLowF,DewpointHighF,DewpointAvgF,DewpointLowF,HumidityHigh,HumidityAvg,HumidityLow,PressureMaxIn,PressureMinIn,WindSpeedMaxMPH,WindSpeedAvgMPH,GustSpeedMaxMPH,PrecipitationSumIn
2013-1-1,29.7,13.1,0.7,25.4,1.9,-11.1,84,60,57,0.00,0.00,10,2,10,0.00
2013-1-2,16.0,6.3,-9.9,6.9,-7.3,-25.0,69,53,46,0.00,0.00,8,0,8,0.00
2013-1-3,21.9,3.5,-14.4,14.9,-10.1,-29.2,75,53,46,0.00,0.00,6,0,6,0.00
2013-1-4,29.3,26.3,21.9,24.6,18.7,13.3,83,73,58,0.00,0.00,17,4,17,0.00
2013-1-5,28.8,21.4,11.1,21.5,9.0,-1.5,78,59,42,0.00,0.00,12,2,12,0.00
2013-1-6,32.7,26.9,16.3,27.2,19.3,4.0,80,73,58,0.00,0.00,7,1,7,0.00
2013-1-7,34.2,20.5,6.6,27.5,8.0,-6.1,81,59,41,0.00,0.00,9,1,9,0.00
2013-1-8,36.3,29.4,23.7,19.3,14.3,8.6,66,53,42,0.00,0.00,10,2,10,0.00
2013-1-9,39.6,27.5,10.9,27.5,14.8,-1.3,76,58,50,0.00,0.00,20,2,20,0.00
2013-1-10,39.7,30.0,20.3,30.4,14.2,8.3,72,52,39,0.00,0.00,12,2,12,0.00
2013-1-11,37.4,27.7,16.2,32.5,18.7,4.0,85,69,52,0.00,0.00,7,0,7,0.00
2013-1-12,56.8,38.9,33.8,40.8,32.1,27.4,89,78,43,0.00,0.00,6,0,6,0.00
2013-1-13,62.2,43.6,32.7,46.5,36.6,27.8,89,77,45,0.00,0.00,9,1,9,0.08
2013-1-14,53.1,37.9,28.9,50.6,25.3,11.1,93,62,42,0.00,0.00,11,3,11,0.00
2013-1-15,39.9,28.4,25.7,14.1,9.2,5.7,53,44,31,0.00,0.00,6,1,6,0.00
2013-1-16,32.2,28.1,25.9,21.4,15.2,8.8,70,58,47,0.00,0.00,8,0,8,0.00
2013-1-17,30.7,19.7,7.2,24.4,2.9,-14.7,78,49,35,0.00,0.00,11,2,11,0.00
2013-1-18,22.3,8.4,-3.8,-0.4,-13.1,-24.6,44,36,33,0.00,0.00,11,1,11,0.00
2013-1-19,36.9,30.2,18.3,28.3,13.3,-0.4,75,50,41,0.00,0.00,11,3,11,0.04
2013-1-20,40.6,27.2,8.4,29.0,12.0,-7.2,84,53,39,0.00,0.00,17,4,17,0.00
2013-1-21,17.2,9.1,-1.7,-1.8,-7.2,-16.7,48,47,40,0.00,0.00,8,1,8,0.00
2013-1-22,13.8,4.7,-3.5,-3.6,-10.7,-18.2,48,48,48,0.00,0.00,15,1,15,0.00
2013-1-23,7.0,-6.9,-15.7,-8.7,-21.5,-29.6,48,48,48,0.00,0.00,8,1,8,0.00
2013-1-24,10.9,-5.4,-17.7,-4.9,-20.1,-31.6,48,48,48,0.00,0.00,13,2,13,0.00
2013-1-25,19.6,6.9,-6.0,-2.6,-13.3,-20.6,48,39,33,0.00,0.00,8,0,8,0.00
2013-1-26,22.5,5.9,-5.3,-2.9,-16.4,-26.4,36,34,33,0.00,0.00,8,1,8,0.00
2013-1-27,27.0,9.1,1.9,0.4,-13.4,-20.0,40,34,31,0.00,0.00,9,1,9,0.00
2013-1-28,33.1,17.9,5.0,18.2,1.8,-16.7,69,50,35,0.00,0.00,0,0,0,0.00
2013-1-29,35.4,31.1,25.3,28.3,21.7,14.5,76,68,63,0.00,0.00,0,0,0,0.00
2013-1-30,55.9,46.0,35.1,51.4,40.0,28.3,91,79,64,0.00,0.00,11,1,11,0.28
2013-1-31,50.9,32.0,16.9,45.2,20.9,-0.4,89,65,44,0.00,0.00,22,4,22,0.67
2013-2-1,17.1,13.7,10.4,0.8,-2.6,-5.8,51,47,44,0.00,0.00,16,3,16,0.00
2013-2-2,17.4,12.6,8.6,0.5,-4.0,-7.5,48,47,45,0.00,0.00,8,1,8,0.00
2013-2-3,27.9,13.3,0.3,6.5,-4.9,-15.1,53,44,34,0.00,0.00,6,0,6,0.00
2013-2-4,22.3,14.9,7.5,2.7,-4.3,-14.4,53,42,32,0.00,0.00,16,3,16,0.00
2013-2-5,26.4,11.6,-2.6,0.6,-10.7,-23.4,42,35,31,0.00,0.00,5,0,5,0.00
2013-2-6,23.4,17.1,5.5,11.6,0.0,-14.6,61,47,37,0.00,0.00,10,2,10,0.00
2013-2-7,24.8,10.2,-0.6,4.2,-10.0,-20.1,43,39,35,0.00,0.00,5,0,5,0.00
2013-2-8,25.9,20.7,13.8,15.0,8.0,-6.6,63,57,39,0.00,0.00,4,0,4,0.04
2013-2-9,25.7,12.8,-2.0,6.6,-4.0,-20.9,59,47,37,0.00,0.00,6,0,6,0.00
2013-2-10,35.8,10.6,-9.2,11.9,-8.2,-27.4,50,42,32,0.00,0.00,4,0,4,0.00
2013-2-11,38.7,30.6,12.7,30.2,18.3,-2.4,76,60,43,0.00,0.00,12,1,12,0.04
2013-2-12,32.2,30.4,27.0,24.8,20.0,13.4,76,65,56,0.00,0.00,0,0,0,0.00
2013-2-13,31.6,29.6,27.1,18.4,15.1,13.2,62,54,47,0.00,0.00,0,0,0,0.00
2013-2-14,34.7,28.2,25.2,16.4,13.1,9.9,63,53,41,0.00,0.00,7,0,7,0.00
2013-2-15,36.0,30.7,25.5,25.9,15.0,7.3,73,53,42,0.00,0.00,13,2,13,0.00
2013-2-16,30.9,22.5,13.8,9.0,3.4,-4.1,53,43,34,0.00,0.00,6,0,6,0.00
2013-2-17,15.6,9.6,5.0,-4.4,-9.3,-15.2,44,41,38,0.00,0.00,10,2,10,0.00
2013-2-18,23.4,9.8,1.0,-2.0,-12.0,-18.8,38,36,32,0.00,0.00,15,2,15,0.00
2013-2-19,42.1,24.9,8.1,22.8,6.1,-14.1,68,45,35,0.00,0.00,10,1,10,0.00
2013-2-20,27.7,22.0,16.5,14.9,7.0,2.3,68,52,42,0.00,0.00,13,4,13,0.00
2013-2-21,16.7,11.0,5.2,7.7,0.4,-4.7,67,61,53,0.00,0.00,9,2,9,0.00
2013-2-22,35.8,22.8,7.0,20.0,8.3,-4.7,61,53,44,0.00,0.00,4,0,4,0.00
2013-2-23,35.4,32.8,27.7,24.7,20.1,13.9,68,59,50,0.00,0.00,6,0,6,0.00
2013-2-24,34.2,32.3,29.7,26.2,22.3,18.2,74,66,59,0.00,0.00,4,0,4,0.00
2013-2-25,35.8,32.0,29.5,21.5,19.7,17.4,66,60,48,0.00,0.00,6,0,6,0.00
2013-2-26,37.9,30.5,17.6,23.5,15.3,4.2,65,53,44,0.00,0.00,6,0,6,0.00
2013-2-27,36.9,34.6,32.5,28.5,23.3,14.6,74,64,46,0.00,0.00,10,1,10,0.00
2013-2-28,37.6,35.0,33.1,26.8,24.3,20.9,73,65,51,0.00,0.00,6,0,6,0.00
2013-3-1,33.8,31.6,27.9,25.1,21.0,17.6,70,65,58,0.00,0.00,6,0,6,0.00
2013-3-2,28.4,23.7,19.9,18.5,11.7,6.8,66,60,56,0.00,0.00,9,1,9,0.00
2013-3-3,25.3,21.6,19.2,11.9,8.5,6.1,60,56,54,0.00,0.00,8,1,8,0.00
2013-3-4,22.6,20.9,17.8,12.0,9.6,5.9,65,61,57,0.00,0.00,11,1,11,0.00
2013-3-5,35.1,27.4,21.7,20.0,14.8,10.4,66,59,52,0.00,0.00,5,0,5,0.00
2013-3-6,39.4,32.4,29.5,30.8,20.6,15.8,75,62,50,0.00,0.00,6,0,6,0.00
2013-3-7,32.0,29.5,27.1,17.1,14.1,11.8,60,52,45,0.00,0.00,6,0,6,0.00
2013-3-8,43.7,31.4,22.6,20.8,15.8,8.5,63,53,38,0.00,0.00,6,0,6,0.04
2013-3-9,51.6,30.6,12.7,23.0,11.3,-2.4,55,45,28,0.00,0.00,4,0,4,0.00
2013-3-10,51.6,36.1,24.1,22.6,15.8,10.8,61,45,27,0.00,0.00,6,0,6,0.00
2013-3-11,48.7,41.9,34.5,24.7,21.0,0.0,58,44,33,0.00,0.00,9,1,9,0.00
2013-3-12,47.3,41.9,35.1,43.3,35.7,21.9,86,79,45,0.00,0.00,9,1,9,0.75
2013-3-13,36.0,33.4,27.7,28.3,21.3,11.0,76,61,46,0.00,0.00,11,1,11,0.04
2013-3-14,27.9,19.8,15.1,11.4,2.8,-1.9,52,47,43,0.00,0.00,13,2,13,0.00
2013-3-15,29.8,20.9,8.8,21.4,6.7,-7.3,77,54,39,0.00,0.00,9,2,9,0.00
2013-3-16,27.0,21.1,12.7,10.9,4.9,-3.2,61,49,41,0.00,0.00,6,1,6,0.08
2013-3-17,27.3,15.8,6.1,2.0,-3.9,-11.8,50,41,32,0.00,0.00,11,1,11,0.00
2013-3-18,34.3,18.8,0.3,7.6,-4.1,-19.3,46,36,31,0.00,0.00,4,0,4,0.00
2013-3-19,33.4,30.1,25.3,21.9,16.9,5.9,65,58,39,0.00,0.00,8,0,8,0.00
2013-3-20,34.0,25.3,21.4,16.0,9.5,5.8,58,51,42,0.00,0.00,14,3,14,0.00
2013-3-21,29.7,23.5,15.8,10.6,6.0,1.7,54,47,37,0.00,0.00,9,2,9,0.00
2013-3-22,29.5,23.3,16.2,13.0,8.4,0.8,60,53,42,0.00,0.00,10,1,10,0.04
2013-3-23,30.9,27.5,23.9,16.6,13.0,9.2,68,55,42,0.00,0.00,10,2,10,0.00
2013-3-24,35.1,30.3,23.9,16.8,13.6,8.4,58,50,42,0.00,0.00,6,0,6,0.00
2013-3-25,37.9,29.2,17.8,19.4,12.1,0.0,57,49,40,0.00,0.00,4,0,4,0.00
2013-3-26,41.4,33.9,30.0,17.7,14.5,10.6,53,45,33,0.00,0.00,7,0,7,0.00
2013-3-27,41.2,35.2,30.0,19.4,16.4,12.7,55,46,38,0.00,0.00,9,1,9,0.00
2013-3-28,40.6,36.1,33.3,28.7,23.0,17.3,66,59,50,0.00,0.00,5,0,5,0.00
2013-3-29,39.7,36.7,34.0,28.7,23.9,18.0,73,60,45,0.00,0.00,9,1,9,0.04
2013-3-30,47.8,35.8,26.2,22.6,15.3,8.7,65,45,27,0.00,0.00,10,1,10,0.00
2013-3-31,48.4,36.8,24.3,28.5,16.7,10.2,66,45,29,0.00,0.00,13,1,13,0.00
2013-4-1,39.7,34.3,24.3,32.5,20.2,2.9,75,57,34,0.00,0.00,12,1,12,0.08
2013-4-2,24.3,22.0,19.9,7.6,3.5,1.7,51,44,39,0.00,0.00,0,0,0,0.00
2013-4-3,24.1,24.1,24.1,4.3,4.3,4.3,42,42,42,0.00,40.00,0,0,0,0.00
2013-5-22,74.5,69.0,65.7,59.4,55.4,51.2,76,63,44,0.00,0.00,8,0,8,0.00
2013-5-23,72.9,65.0,60.8,63.7,55.7,45.9,83,72,43,0.00,0.00,13,1,13,0.31
2013-5-24,61.2,48.7,43.3,54.6,41.2,36.0,80,75,72,0.00,0.00,8,0,8,1.14
2013-5-25,44.2,42.0,40.5,37.5,35.5,34.0,80,78,76,0.00,0.00,10,0,10,0.98
2013-5-26,49.1,43.2,38.5,41.8,36.7,30.6,82,78,69,0.00,0.00,8,0,8,0.71
2013-5-27,61.7,48.4,36.1,37.3,28.7,24.5,78,51,26,0.00,0.00,11,1,11,0.71
2013-5-28,68.5,53.4,35.6,36.3,29.7,23.5,68,43,23,0.00,0.00,9,0,9,0.71
2013-5-29,69.1,62.3,54.7,61.2,53.4,35.4,84,73,48,0.00,0.00,8,1,8,0.71
2013-5-30,78.6,70.2,63.7,61.4,53.7,46.3,83,59,33,0.00,0.00,8,2,8,0.71
2013-5-31,85.1,71.6,58.1,63.7,49.8,40.9,81,51,23,0.00,0.00,12,1,12,0.71
2013-6-1,82.2,70.9,59.9,62.0,52.6,47.5,77,55,30,0.00,0.00,10,2,10,0.79
2013-6-2,75.7,68.6,62.8,66.3,56.3,46.3,85,67,38,0.00,0.00,10,1,10,0.71
2013-6-3,62.8,58.3,49.1,51.6,39.3,29.8,68,50,35,0.00,0.00,9,2,9,0.71
2013-6-4,61.3,52.7,46.9,35.5,32.0,29.8,57,46,35,0.00,0.00,10,2,10,0.71
2013-6-5,66.9,54.5,41.0,40.5,32.1,27.0,68,45,24,0.00,0.00,7,0,7,0.71
2013-6-6,57.9,53.7,50.5,47.4,40.7,34.3,80,62,41,0.00,0.00,0,0,0,0.71
2013-6-7,59.0,55.8,52.7,54.5,51.0,46.7,86,84,80,0.00,0.00,0,0,0,0.98
2013-6-8,59.7,57.3,54.9,56.2,53.4,50.8,88,87,85,0.00,0.00,5,0,5,0.71
2013-6-9,68.0,60.9,53.6,56.3,48.2,38.0,89,67,34,0.00,0.00,8,1,8,0.71
2013-6-10,68.4,59.3,48.7,55.8,44.4,39.5,77,60,35,0.00,0.00,6,0,6,0.71
2013-6-11,60.6,59.1,57.6,56.1,54.0,52.3,86,83,76,0.00,0.00,4,0,4,1.46
2013-6-12,65.1,58.8,54.5,55.7,50.0,42.6,87,74,47,0.00,0.00,4,0,4,0.71
2013-6-13,62.8,58.0,53.8,57.5,49.0,40.9,84,72,52,0.00,0.00,0,0,0,0.04
2013-6-14,71.2,59.3,49.6,51.5,43.4,38.8,80,58,34,0.00,0.00,6,0,6,0.00
2013-6-15,68.2,57.0,43.3,44.4,35.2,31.7,71,47,26,0.00,0.00,9,1,9,0.00
2013-6-16,63.5,57.4,48.0,56.7,47.0,36.2,83,69,43,0.00,0.00,8,1,8,0.20
2013-6-17,67.1,61.2,55.6,56.5,50.8,44.5,84,69,46,0.00,0.00,6,1,6,0.20
2013-6-18,65.1,57.1,50.2,47.8,41.2,0.0,76,58,21,0.00,0.00,4,0,4,0.00
2013-6-19,66.0,54.2,41.4,37.8,32.9,28.3,68,47,25,0.00,0.00,4,0,4,0.00
2013-6-20,70.2,56.6,40.6,42.4,33.6,29.0,70,45,24,0.00,0.00,9,1,9,0.00
2013-6-21,74.8,62.0,49.1,47.3,40.4,34.6,70,47,27,0.00,0.00,6,1,6,0.00
2013-6-22,74.1,64.8,56.7,59.0,52.2,43.9,80,65,41,0.00,0.00,8,0,8,0.08
2013-6-23,79.9,71.3,63.7,70.5,61.3,55.4,89,72,47,0.00,0.00,10,1,10,0.31
2013-6-24,79.7,72.1,67.3,70.2,61.1,55.3,81,69,48,0.00,0.00,17,1,17,0.24
2013-6-25,81.5,71.0,66.0,67.2,60.6,52.0,86,71,37,0.00,0.00,9,1,9,0.20
2013-6-26,74.3,69.6,66.7,69.5,62.1,55.2,88,78,53,0.00,0.00,8,0,8,0.08
2013-6-27,80.4,70.1,63.0,64.2,56.4,47.0,84,64,33,0.00,0.00,6,0,6,0.24
2013-6-28,67.5,63.7,60.4,62.4,57.4,54.2,86,80,74,0.00,0.00,6,0,6,1.06
2013-6-29,69.8,64.5,60.1,62.1,56.7,52.4,86,76,54,0.00,0.00,8,0,8,0.20
2013-6-30,72.3,65.5,56.5,62.8,56.4,50.4,86,73,50,0.00,0.00,4,0,4,0.00
2013-7-1,68.9,65.2,60.4,60.0,57.3,54.3,83,76,63,0.00,0.00,4,0,4,0.83
2013-7-2,75.0,67.8,60.4,69.7,62.3,55.3,89,83,71,0.00,0.00,8,0,8,0.28
2013-7-3,79.2,72.5,67.6,73.3,66.1,58.7,92,81,52,0.00,0.00,9,0,10,0.55
2013-7-4,81.7,73.3,67.8,72.8,65.4,56.4,90,78,43,0.00,0.00,8,1,8,0.24
2013-7-5,81.7,72.7,65.8,70.9,63.0,55.2,88,73,41,0.00,0.00,6,1,6,0.16
2013-7-6,78.1,72.3,64.4,67.9,59.4,47.9,87,67,35,0.00,0.00,8,1,8,0.12
2013-7-7,77.4,70.2,63.1,66.5,59.6,53.2,83,70,53,0.00,0.00,6,0,6,0.12
2013-7-8,75.9,71.0,67.8,68.8,63.4,61.1,87,77,61,0.00,0.00,5,0,5,0.12
2013-7-9,79.5,71.1,65.7,67.6,62.5,55.7,86,75,45,0.00,0.00,6,0,6,0.28
2013-7-10,77.0,72.5,68.0,70.5,64.4,61.0,90,76,60,0.00,0.00,9,1,9,0.12
2013-7-11,74.3,68.4,59.5,63.5,55.0,45.2,84,64,38,0.00,0.00,8,0,8,0.39
2013-7-12,75.0,64.2,54.1,55.7,48.4,45.3,77,58,36,0.00,0.00,8,0,8,0.35
2013-7-13,75.6,66.3,55.2,60.4,52.2,46.2,78,62,43,0.00,0.00,6,0,6,0.35
2013-7-14,79.7,72.0,65.1,67.7,59.8,54.7,85,67,44,0.00,0.00,6,0,6,0.35
2013-7-15,84.2,73.1,63.0,65.3,54.3,47.0,82,56,30,0.00,0.00,8,1,8,0.35
2013-7-16,83.7,72.5,62.4,63.8,55.2,49.3,78,57,32,0.00,0.00,6,0,6,0.35
2013-7-17,86.0,75.2,64.8,66.4,58.5,51.5,79,58,35,0.00,0.00,10,1,10,0.35
2013-7-18,82.4,74.5,68.9,68.8,63.3,57.3,83,70,44,0.00,0.00,7,0,7,0.35
2013-7-19,86.5,76.2,68.9,71.1,62.5,54.1,87,66,35,0.00,0.00,15,2,15,0.35
2013-7-20,75.9,70.9,65.8,62.1,55.0,43.7,78,59,33,0.00,0.00,11,2,11,0.35
2013-7-21,73.2,64.9,58.5,52.5,46.8,40.2,71,54,32,0.00,0.00,5,0,5,0.35
2013-7-22,76.5,64.5,51.6,59.5,49.6,41.0,76,60,38,0.00,0.00,5,0,5,0.35
2013-7-23,77.0,69.8,66.2,70.9,58.2,50.4,86,69,40,0.00,0.00,6,0,6,0.35
2013-7-24,67.8,59.5,49.5,59.4,48.3,38.6,79,67,49,0.00,0.00,8,1,8,0.35
2013-7-25,68.4,55.6,42.8,44.5,37.7,33.0,75,53,33,0.00,0.00,4,0,4,0.00
2013-7-26,71.8,58.3,45.7,51.2,43.3,35.7,77,59,37,0.00,0.00,4,0,4,0.35
2013-7-27,77.7,63.6,48.6,55.8,45.5,39.0,79,55,28,0.00,0.00,8,0,8,0.35
2013-7-28,70.9,67.3,63.3,60.9,56.3,51.5,77,68,57,0.00,0.00,8,0,8,0.35
2013-7-29,72.9,64.1,57.7,58.1,49.2,40.2,82,61,32,0.00,0.00,9,1,9,0.35
2013-7-30,69.4,63.0,57.9,50.5,46.3,41.5,72,56,37,0.00,0.00,9,1,9,0.35
2013-7-31,75.9,65.4,55.4,56.7,48.2,41.5,78,57,31,0.00,0.00,6,0,6,0.35
2013-8-1,70.5,64.4,57.9,60.9,54.7,48.1,83,71,46,0.00,0.00,15,0,15,0.63
2013-8-2,72.3,65.4,58.3,58.6,47.3,40.5,83,55,34,0.00,0.00,10,1,232,0.35
2013-8-3,68.9,62.5,57.0,56.5,48.5,40.7,81,62,38,0.00,0.00,12,1,12,0.20
2013-8-4,67.8,60.5,55.9,52.3,45.4,37.4,75,59,35,0.00,0.00,11,1,11,0.00
2013-8-5,68.5,57.9,48.2,44.7,38.2,31.1,71,50,30,0.00,0.00,6,1,6,0.00
2013-8-6,69.8,58.2,47.1,48.3,39.7,36.4,73,53,32,0.00,0.00,6,0,6,0.00
2013-8-7,74.8,63.5,52.2,56.3,47.6,42.1,79,58,34,0.00,0.00,12,1,12,0.00
2013-8-8,78.8,70.7,65.7,61.4,57.6,52.1,75,64,41,0.00,0.00,6,1,6,0.00
2013-8-9,72.9,69.6,67.1,68.8,64.1,59.8,89,83,75,0.00,0.00,8,0,8,1.30
2013-8-10,69.8,63.6,58.3,60.0,44.5,35.9,78,52,30,0.00,0.00,8,2,8,0.00
2013-8-11,70.3,61.6,52.2,50.5,43.2,37.8,73,53,33,0.00,0.00,7,0,7,0.00
2013-8-12,71.6,62.3,53.4,51.6,44.5,39.7,74,54,33,0.00,0.00,7,1,7,0.00
2013-8-13,68.7,62.1,57.9,60.6,54.0,47.2,82,75,55,0.00,0.00,5,0,5,0.24
2013-8-14,60.8,56.2,50.5,53.4,47.0,42.6,80,71,54,0.00,0.00,9,1,9,0.16
2013-8-15,66.4,55.6,44.8,50.7,40.1,36.1,81,59,35,0.00,0.00,8,1,8,0.00
2013-8-16,70.0,58.2,46.2,51.6,42.2,36.8,78,57,35,0.00,0.00,6,0,6,0.00
2013-8-17,73.9,61.4,50.2,53.5,44.5,39.9,78,57,32,0.00,0.00,5,0,5,0.00
2013-8-18,72.0,60.8,50.7,55.1,44.2,40.8,77,57,34,0.00,0.00,6,0,6,0.00
2013-8-19,76.1,62.7,50.7,54.8,45.0,41.5,79,55,32,0.00,0.00,7,1,7,0.00
2013-8-20,77.7,64.9,53.6,58.8,48.3,43.7,79,57,32,0.00,0.00,7,1,7,0.00
2013-8-21,80.1,66.7,55.8,61.4,50.4,46.5,79,58,33,0.00,0.00,9,1,9,0.00
2013-8-22,79.2,66.7,57.9,61.4,55.1,49.3,81,68,40,0.00,0.00,8,1,8,0.04
2013-8-23,71.1,62.1,50.9,59.0,47.4,37.9,81,61,34,0.00,0.00,7,0,7,0.00
2013-8-24,74.5,57.7,43.5,48.9,38.3,32.9,74,52,25,0.00,0.00,6,0,6,0.00
2013-8-25,76.1,60.4,47.1,50.8,41.3,35.2,74,53,23,0.00,0.00,8,0,9,0.00
2013-8-26,71.1,66.8,62.4,64.2,59.3,48.1,86,77,59,0.00,0.00,6,0,6,0.31
2013-8-27,72.7,68.9,64.8,68.0,62.8,57.9,89,81,68,0.00,0.00,5,0,5,0.43
2013-8-28,83.1,69.7,61.0,66.7,57.9,52.1,87,69,37,0.00,0.00,4,0,4,0.00
2013-8-29,78.1,68.6,62.8,64.9,57.6,52.3,83,69,42,0.00,0.00,5,0,5,0.00
2013-8-30,80.8,68.4,58.6,62.1,53.9,47.9,81,62,33,0.00,0.00,12,1,12,0.00
2013-8-31,72.5,69.0,66.6,68.4,63.9,57.3,89,84,72,0.00,0.00,8,0,8,0.31
2013-9-1,77.0,70.6,66.2,72.7,63.2,56.8,90,78,52,0.00,0.00,0,0,0,0.08
2013-9-2,75.0,68.5,63.9,69.1,60.3,55.4,88,76,57,0.00,0.00,11,0,11,0.43
2013-9-3,65.5,63.0,60.6,59.0,55.7,52.3,83,77,71,0.00,0.00,10,1,10,0.08
2013-9-4,68.7,61.5,54.5,56.0,50.8,44.7,81,69,43,0.00,0.00,10,1,10,0.47
2013-9-5,61.0,54.8,43.7,55.1,39.6,28.3,82,59,35,0.00,0.00,9,0,9,0.00
2013-9-6,66.2,50.8,36.9,40.2,32.1,25.5,71,51,27,0.00,0.00,6,1,6,0.00
2013-9-7,66.4,56.9,48.6,48.8,39.4,32.7,75,54,33,0.00,0.00,6,1,7,0.00
2013-9-8,61.2,55.0,42.6,53.0,38.1,28.1,79,55,32,0.00,0.00,10,1,10,0.00
2013-9-9,68.7,51.3,36.7,42.2,32.8,25.2,70,52,26,0.00,0.00,9,1,9,0.08
2013-9-10,73.8,64.2,51.3,70.1,58.7,38.8,90,83,62,0.00,0.00,8,0,8,0.87
2013-9-11,87.1,74.8,68.2,71.6,63.3,53.0,92,71,33,0.00,0.00,12,1,12,0.04
2013-9-12,71.4,68.6,64.2,65.3,61.4,58.4,84,78,69,0.00,0.00,6,0,6,0.24
2013-9-13,64.4,56.9,50.5,59.0,49.8,42.9,83,77,69,0.00,0.00,6,0,6,0.08
2013-9-14,58.6,50.4,42.8,44.1,39.1,31.9,78,66,41,0.00,0.00,8,0,8,0.04
2013-9-15,45.7,40.7,38.3,38.2,31.3,29.0,75,69,65,0.00,0.00,0,0,0,0.00